Time;durP1;ratioP1;P1;durP2;ratioP2;P2;SDS_P1;SDS_P2;PMS_P1;PMS_P2;Temp;Humidity;BMP_temperature;BMP_pressure;BME280_temperature;BME280_humidity;BME280_pressure;Samples;Min_cycle;Max_cycle;Signal;HPM_P1;HPM_P2
2024/01/25 00:00:41;;;;;;;38.05;21.92;;;;;;;6.89;56.82;100951.25;5067947;28;20016;-74
2024/01/25 00:03:06;;;;;;;34.45;21.48;;;;;;;6.84;56.70;100948.88;5069609;28;20024;-76
2024/01/25 00:05:32;;;;;;;41.35;21.02;;;;;;;6.85;56.85;100945.22;5068731;28;20081;-77
2024/01/25 00:07:58;;;;;;;35.85;21.00;;;;;;;6.72;56.65;100919.34;5070618;28;20025;-75
2024/01/25 00:10:23;;;;;;;39.60;21.63;;;;;;;6.65;56.57;100912.66;5077391;28;20036;-76
2024/01/25 00:12:49;;;;;;;30.73;19.40;;;;;;;6.74;56.61;100941.50;5071282;28;20108;-75
2024/01/25 00:15:15;;;;;;;45.30;20.75;;;;;;;6.76;56.67;100947.63;5071218;28;20021;-76
2024/01/25 00:17:41;;;;;;;34.58;19.73;;;;;;;6.51;56.77;100919.66;5070833;28;20059;-77
2024/01/25 00:20:09;;;;;;;32.05;19.67;;;;;;;6.57;56.79;100921.97;5070912;28;20033;-78
2024/01/25 00:22:34;;;;;;;34.40;19.90;;;;;;;6.69;57.18;100930.22;5070760;28;20027;-78
2024/01/25 00:25:00;;;;;;;26.08;18.13;;;;;;;6.75;57.19;100921.84;5070572;28;20115;-75
2024/01/25 00:27:25;;;;;;;29.90;18.92;;;;;;;6.82;56.83;100934.72;5071090;28;20086;-80
2024/01/25 00:29:51;;;;;;;32.05;18.15;;;;;;;6.59;56.76;100897.84;5071078;28;20143;-75
2024/01/25 00:32:16;;;;;;;31.88;19.45;;;;;;;6.81;56.42;100940.16;5070629;28;20029;-76
2024/01/25 00:34:42;;;;;;;26.70;18.45;;;;;;;6.85;56.44;100931.03;5070633;28;20565;-77
2024/01/25 00:37:08;;;;;;;31.50;19.60;;;;;;;6.75;56.46;100916.50;5070662;28;20476;-76
2024/01/25 00:39:34;;;;;;;33.97;18.42;;;;;;;6.80;56.90;100925.94;5070443;28;20086;-77
2024/01/25 00:42:05;;;;;;;30.05;19.85;;;;;;;6.76;56.49;100910.19;5070803;28;20025;-75
2024/01/25 00:44:31;;;;;;;38.33;18.88;;;;;;;6.82;56.27;100925.88;5070574;28;20483;-76
2024/01/25 00:46:57;;;;;;;37.03;18.92;;;;;;;6.80;56.63;100912.56;5070904;28;20111;-75
2024/01/25 00:49:23;;;;;;;35.85;20.67;;;;;;;6.86;56.19;100914.00;5071074;28;20050;-76
2024/01/25 00:51:50;;;;;;;32.80;19.95;;;;;;;6.83;56.19;100916.88;5069728;28;20139;-75
2024/01/25 00:54:16;;;;;;;29.27;18.10;;;;;;;6.75;56.48;100895.09;5071124;28;20032;-76
2024/01/25 00:56:42;;;;;;;34.85;20.25;;;;;;;6.78;56.61;100886.91;5079024;28;20063;-77
2024/01/25 00:59:08;;;;;;;35.03;19.80;;;;;;;6.77;56.75;100885.16;5082735;28;20028;-77
2024/01/25 01:01:34;;;;;;;34.00;21.02;;;;;;;6.72;56.86;100877.44;5070847;28;20063;-77
2024/01/25 01:03:59;;;;;;;33.38;19.63;;;;;;;6.74;56.69;100885.34;5070297;28;20481;-76
2024/01/25 01:06:26;;;;;;;29.70;20.13;;;;;;;6.62;56.95;100859.38;5070154;28;20025;-77
2024/01/25 01:08:52;;;;;;;29.02;20.67;;;;;;;6.67;56.49;100857.28;5070038;28;20098;-75
2024/01/25 01:11:18;;;;;;;34.85;21.40;;;;;;;6.68;56.94;100875.03;5069917;28;20444;-76
2024/01/25 01:13:44;;;;;;;33.90;20.38;;;;;;;6.65;56.98;100859.19;5070441;28;20093;-74
2024/01/25 01:16:09;;;;;;;33.35;20.92;;;;;;;6.53;56.97;100834.09;5069918;28;20426;-77
2024/01/25 01:18:35;;;;;;;29.83;21.00;;;;;;;6.57;57.20;100836.47;5069979;28;20033;-76
2024/01/25 01:21:00;;;;;;;47.65;22.85;;;;;;;6.50;57.11;100812.91;5069666;28;20037;-77
2024/01/25 01:23:26;;;;;;;35.30;20.45;;;;;;;6.61;57.17;100820.25;5069561;28;20526;-76
2024/01/25 01:25:51;;;;;;;38.90;21.73;;;;;;;6.46;57.08;100801.53;5070003;28;20103;-76
2024/01/25 01:28:17;;;;;;;37.42;21.42;;;;;;;6.61;57.51;100814.91;5069887;28;20465;-75
2024/01/25 01:30:43;;;;;;;41.70;22.10;;;;;;;6.56;57.07;100818.75;5069772;28;20025;-77
2024/01/25 01:33:09;;;;;;;44.90;23.23;;;;;;;6.52;57.57;100811.84;5068168;28;20036;-77
2024/01/25 01:35:34;;;;;;;39.95;24.88;;;;;;;6.45;57.23;100798.97;5070115;28;20048;-76
2024/01/25 01:38:00;;;;;;;49.22;25.83;;;;;;;6.38;57.63;100782.47;5069804;28;20048;-74
2024/01/25 01:40:25;;;;;;;36.40;24.20;;;;;;;6.34;57.50;100790.75;5071243;28;20413;-74
2024/01/25 01:42:51;;;;;;;43.10;26.55;;;;;;;6.25;58.21;100781.50;5070392;28;20021;-76
2024/01/25 01:45:16;;;;;;;41.97;23.95;;;;;;;6.32;58.10;100793.53;5074349;28;20060;-79
2024/01/25 01:47:42;;;;;;;46.22;26.88;;;;;;;6.22;58.35;100791.50;5077552;28;20040;-75
2024/01/25 01:50:09;;;;;;;35.58;22.45;;;;;;;6.11;58.77;100799.31;5073060;28;20056;-75
2024/01/25 01:52:35;;;;;;;41.47;25.23;;;;;;;6.04;59.02;100772.13;5068981;28;20021;-76
2024/01/25 01:55:01;;;;;;;47.05;23.00;;;;;;;6.06;59.20;100764.88;5069339;28;20028;-78
2024/01/25 01:57:27;;;;;;;44.58;22.23;;;;;;;6.08;59.11;100757.66;5069277;28;20032;-77
2024/01/25 01:59:53;;;;;;;33.70;18.65;;;;;;;6.13;58.90;100766.22;5069326;28;20090;-76
2024/01/25 02:02:19;;;;;;;30.90;16.38;;;;;;;6.14;58.88;100761.75;5069304;28;20024;-75
2024/01/25 02:04:44;;;;;;;27.63;16.13;;;;;;;6.15;58.76;100763.44;5068564;28;20055;-80
2024/01/25 02:07:12;;;;;;;25.05;15.95;;;;;;;6.32;58.52;100776.63;5068681;28;20025;-77
2024/01/25 02:09:37;;;;;;;24.63;16.30;;;;;;;6.33;58.42;100760.50;5049651;28;20044;-76
2024/01/25 02:12:03;;;;;;;31.48;17.40;;;;;;;6.42;58.14;100759.94;5068785;28;20117;-75
2024/01/25 02:14:30;;;;;;;31.85;17.02;;;;;;;6.55;58.10;100758.22;5068868;28;20094;-77
2024/01/25 02:16:56;;;;;;;29.73;17.77;;;;;;;6.62;57.82;100741.81;5068799;28;20439;-75
2024/01/25 02:19:22;;;;;;;32.70;19.75;;;;;;;6.56;57.34;100727.88;5069090;28;20028;-75
2024/01/25 02:21:48;;;;;;;27.95;19.60;;;;;;;6.67;57.35;100729.00;5068604;28;20024;-76
2024/01/25 02:24:14;;;;;;;39.47;21.88;;;;;;;6.73;57.25;100733.97;5068772;28;20041;-77
2024/01/25 02:26:39;;;;;;;36.22;22.92;;;;;;;6.78;57.11;100729.19;5069240;28;20038;-75
2024/01/25 02:29:07;;;;;;;35.17;22.90;;;;;;;6.71;57.42;100714.50;5070482;28;20039;-76
2024/01/25 02:31:33;;;;;;;37.58;22.42;;;;;;;6.77;56.83;100714.09;5069098;28;20020;-76
2024/01/25 02:33:58;;;;;;;35.75;21.90;;;;;;;6.77;57.25;100703.41;5071006;28;20020;-77
2024/01/25 02:36:24;;;;;;;37.83;21.98;;;;;;;6.69;57.23;100692.38;5072701;28;20076;-78
2024/01/25 02:38:49;;;;;;;42.47;23.85;;;;;;;6.81;57.02;100688.91;5069400;28;20024;-78
2024/01/25 02:41:15;;;;;;;37.05;22.52;;;;;;;6.86;57.09;100692.97;5068268;28;20758;-77
2024/01/25 02:43:40;;;;;;;40.97;22.42;;;;;;;6.90;56.48;100691.84;5066758;28;20500;-77
2024/01/25 02:46:07;;;;;;;50.53;23.27;;;;;;;6.90;56.61;100693.66;5068119;28;20408;-77
2024/01/25 02:48:33;;;;;;;43.42;23.80;;;;;;;6.84;57.00;100689.56;5067909;28;20024;-76
2024/01/25 02:50:58;;;;;;;34.28;22.75;;;;;;;6.75;57.20;100658.09;5067946;28;20028;-75
2024/01/25 02:53:23;;;;;;;34.75;21.55;;;;;;;6.87;56.45;100672.47;5068162;28;20703;-78
2024/01/25 02:55:49;;;;;;;38.05;20.63;;;;;;;6.77;56.55;100649.94;5068178;28;20078;-75
2024/01/25 02:58:15;;;;;;;37.72;21.70;;;;;;;6.83;57.19;100666.44;5068050;28;20029;-76
2024/01/25 03:00:40;;;;;;;33.25;20.00;;;;;;;6.87;56.95;100662.63;5068016;28;20032;-76
2024/01/25 03:03:06;;;;;;;35.33;20.92;;;;;;;7.00;56.78;100668.03;5068302;28;20199;-76
2024/01/25 03:05:31;;;;;;;37.47;20.35;;;;;;;7.00;56.46;100660.00;5067898;28;20389;-77
2024/01/25 03:07:56;;;;;;;39.63;21.20;;;;;;;7.03;56.36;100662.47;5066725;28;20020;-78
2024/01/25 03:10:23;;;;;;;32.53;19.50;;;;;;;7.04;56.37;100656.16;5068450;28;20090;-77
2024/01/25 03:12:49;;;;;;;32.70;20.92;;;;;;;7.11;55.79;100660.16;5068771;28;20028;-75
2024/01/25 03:15:15;;;;;;;31.88;19.67;;;;;;;7.16;56.13;100652.66;5068799;28;20031;-76
2024/01/25 03:17:40;;;;;;;31.88;20.17;;;;;;;7.14;55.35;100643.91;5069318;28;20110;-76
2024/01/25 03:20:06;;;;;;;38.47;20.92;;;;;;;7.05;56.06;100644.50;5069471;28;20024;-76
2024/01/25 03:22:32;;;;;;;32.90;21.15;;;;;;;7.01;55.62;100621.59;5069148;28;20352;-75
2024/01/25 03:24:57;;;;;;;37.28;21.38;;;;;;;7.00;56.06;100615.38;5074657;28;20081;-75
2024/01/25 03:27:23;;;;;;;38.88;22.45;;;;;;;7.08;55.87;100628.25;5072198;28;20070;-75
2024/01/25 03:29:48;;;;;;;35.90;22.08;;;;;;;7.05;56.10;100625.78;5067850;28;20116;-81
2024/01/25 03:32:14;;;;;;;34.53;22.15;;;;;;;7.17;55.99;100624.97;5066057;28;20518;-76
2024/01/25 03:34:39;;;;;;;36.30;20.30;;;;;;;7.11;56.21;100612.00;5067303;28;20044;-75
2024/01/25 03:37:05;;;;;;;39.83;21.10;;;;;;;7.06;55.84;100593.59;5067512;28;20644;-76
2024/01/25 03:39:30;;;;;;;39.78;22.40;;;;;;;7.21;55.88;100621.13;5067803;28;20036;-80
2024/01/25 03:41:56;;;;;;;35.00;21.35;;;;;;;7.21;55.43;100618.47;5067588;28;20062;-77
2024/01/25 03:44:21;;;;;;;35.60;21.13;;;;;;;7.28;55.40;100622.41;5067226;28;20108;-76
2024/01/25 03:46:47;;;;;;;36.90;21.63;;;;;;;7.22;55.44;100612.13;5067536;28;20506;-77
2024/01/25 03:49:12;;;;;;;36.15;21.92;;;;;;;7.29;55.34;100621.47;5069354;28;20036;-78
2024/01/25 03:51:38;;;;;;;46.22;24.80;;;;;;;7.17;55.05;100606.25;5072144;28;20017;-76
2024/01/25 03:54:03;;;;;;;46.38;25.13;;;;;;;7.19;55.35;100620.34;5071485;28;20028;-79
2024/01/25 03:56:29;;;;;;;39.58;23.75;;;;;;;6.72;55.13;100555.88;5071570;28;20354;-76
2024/01/25 03:58:54;;;;;;;36.72;22.13;;;;;;;6.72;55.50;100577.25;5071672;28;20113;-76
2024/01/25 04:01:20;;;;;;;33.97;21.48;;;;;;;6.89;55.92;100595.69;5071684;28;20035;-76
2024/01/25 04:03:45;;;;;;;37.72;19.85;;;;;;;6.98;55.77;100632.50;5072248;28;20055;-78
2024/01/25 04:06:11;;;;;;;35.08;21.13;;;;;;;6.88;55.47;100642.09;5072502;28;20448;-77
2024/01/25 04:08:36;;;;;;;39.30;21.83;;;;;;;6.87;56.49;100656.41;5072942;28;20106;-76
2024/01/25 04:11:02;;;;;;;44.50;22.42;;;;;;;6.89;56.23;100654.50;5071702;28;20024;-76
2024/01/25 04:13:28;;;;;;;40.58;25.88;;;;;;;6.90;56.40;100656.22;5081711;28;20039;-78
2024/01/25 04:15:53;;;;;;;33.67;21.13;;;;;;;6.72;56.47;100626.22;5079861;28;20107;-76
2024/01/25 04:18:19;;;;;;;37.33;21.55;;;;;;;6.84;56.20;100643.25;5071124;28;20024;-76
2024/01/25 04:20:44;;;;;;;39.95;24.50;;;;;;;6.88;56.13;100639.44;5071039;28;20048;-78
2024/01/25 04:23:10;;;;;;;39.38;23.42;;;;;;;6.87;56.38;100643.06;5071162;28;20036;-80
2024/01/25 04:25:35;;;;;;;43.78;24.75;;;;;;;6.81;56.37;100646.13;5071001;28;20024;-78
2024/01/25 04:28:01;;;;;;;40.50;25.15;;;;;;;6.75;56.61;100651.88;5070776;28;20472;-76
2024/01/25 04:30:27;;;;;;;50.30;25.52;;;;;;;6.71;56.43;100656.56;5069963;28;20112;-77
2024/01/25 04:32:53;;;;;;;54.83;24.80;;;;;;;6.71;56.60;100659.22;5070991;28;20230;-76
2024/01/25 04:35:18;;;;;;;51.90;27.10;;;;;;;6.72;56.85;100665.44;5071641;28;20568;-77
2024/01/25 04:37:44;;;;;;;46.22;27.98;;;;;;;6.69;56.51;100663.84;5070789;28;20025;-76
2024/01/25 04:40:09;;;;;;;52.17;31.48;;;;;;;6.56;57.47;100663.75;5071137;28;20108;-77
2024/01/25 04:42:35;;;;;;;54.60;32.10;;;;;;;6.53;57.35;100657.75;5071171;28;20028;-77
2024/01/25 04:45:01;;;;;;;56.15;34.08;;;;;;;6.52;57.43;100650.69;5071057;28;20032;-78
2024/01/25 04:47:26;;;;;;;64.35;36.28;;;;;;;6.60;57.48;100652.88;5071109;28;20024;-79
2024/01/25 04:49:52;;;;;;;67.07;36.67;;;;;;;6.55;57.61;100635.31;5071131;28;20377;-77
2024/01/25 04:52:17;;;;;;;59.70;36.92;;;;;;;6.64;57.75;100659.72;5071342;28;20017;-78
2024/01/25 04:54:43;;;;;;;67.93;37.42;;;;;;;6.66;57.29;100652.47;5071746;28;20060;-77
2024/01/25 04:57:08;;;;;;;66.30;36.38;;;;;;;6.69;57.85;100652.28;5071144;28;20025;-77
2024/01/25 04:59:34;;;;;;;59.72;37.72;;;;;;;6.32;57.78;100606.56;5071011;28;20095;-78
2024/01/25 05:01:59;;;;;;;64.25;35.75;;;;;;;6.30;57.54;100619.13;5084993;28;20032;-77
2024/01/25 05:04:25;;;;;;;55.75;32.95;;;;;;;6.54;57.71;100665.66;5080948;28;20032;-76
2024/01/25 05:06:50;;;;;;;68.28;37.20;;;;;;;6.40;58.03;100633.63;5071446;28;20025;-79
2024/01/25 05:09:16;;;;;;;63.58;34.47;;;;;;;6.51;57.84;100657.00;5070983;28;20035;-79
2024/01/25 05:11:42;;;;;;;58.70;32.10;;;;;;;6.42;57.69;100625.53;5070842;28;20033;-81
2024/01/25 05:14:07;;;;;;;52.95;33.22;;;;;;;6.53;57.75;100652.41;5069467;28;20048;-78
2024/01/25 05:16:33;;;;;;;73.32;31.83;;;;;;;6.54;57.76;100665.66;5070764;28;20573;-79
2024/01/25 05:18:58;;;;;;;60.22;33.50;;;;;;;6.45;57.78;100639.53;5068181;28;20502;-80
2024/01/25 05:21:24;;;;;;;55.03;29.08;;;;;;;6.50;57.55;100632.09;5070870;28;20033;-81
2024/01/25 05:23:49;;;;;;;54.13;27.77;;;;;;;6.53;57.44;100649.75;5070459;28;20386;-81
2024/01/25 05:26:15;;;;;;;48.03;26.85;;;;;;;6.40;57.56;100620.28;5069036;28;20472;-80
2024/01/25 05:28:41;;;;;;;41.90;22.98;;;;;;;6.62;57.62;100649.13;5070845;28;20476;-78
2024/01/25 05:31:12;;;;;;;39.42;22.02;;;;;;;6.41;57.15;100615.78;5070711;28;20024;-78
2024/01/25 05:33:39;;;;;;;42.03;19.58;;;;;;;6.36;57.06;100607.22;5070299;28;20064;-78
2024/01/25 05:36:05;;;;;;;35.50;17.73;;;;;;;6.49;57.17;100649.06;5067270;28;20059;-79
2024/01/25 05:38:32;;;;;;;38.15;18.27;;;;;;;6.48;56.79;100631.31;5069837;28;20124;-79
2024/01/25 05:40:57;;;;;;;40.20;20.02;;;;;;;6.61;57.00;100638.53;5069327;28;20041;-79
2024/01/25 05:43:23;;;;;;;31.40;16.63;;;;;;;6.58;57.16;100624.44;5070586;28;20181;-78
2024/01/25 05:45:49;;;;;;;39.38;17.27;;;;;;;6.76;56.97;100646.41;5071469;28;20380;-81
2024/01/25 05:48:15;;;;;;;26.17;15.98;;;;;;;6.74;56.95;100639.47;5073530;28;20048;-76
2024/01/25 05:50:40;;;;;;;29.77;16.55;;;;;;;6.80;56.75;100633.72;5078912;28;20077;-80
2024/01/25 05:53:06;;;;;;;33.78;15.88;;;;;;;6.81;56.65;100644.31;5079581;28;20033;-77
2024/01/25 05:55:31;;;;;;;37.40;17.35;;;;;;;6.85;56.50;100653.84;5068874;28;20039;-78
2024/01/25 05:57:57;;;;;;;47.38;18.42;;;;;;;6.86;56.93;100660.91;5070141;28;20028;-77
2024/01/25 06:00:23;;;;;;;39.63;18.33;;;;;;;6.87;56.70;100664.44;5070194;28;20035;-76
2024/01/25 06:02:48;;;;;;;38.50;19.65;;;;;;;6.90;56.49;100666.91;5070527;28;20036;-76
2024/01/25 06:05:14;;;;;;;38.97;20.67;;;;;;;6.89;56.55;100665.19;5069895;28;20617;-76
2024/01/25 06:07:40;;;;;;;43.30;19.88;;;;;;;6.86;56.82;100665.38;5069993;28;20052;-78
2024/01/25 06:10:07;;;;;;;35.72;19.20;;;;;;;6.77;57.02;100660.66;5067004;28;20025;-75
2024/01/25 06:12:32;;;;;;;39.38;18.90;;;;;;;6.84;57.75;100675.34;5067987;28;20016;-73
2024/01/25 06:14:58;;;;;;;31.08;18.27;;;;;;;6.82;57.55;100663.91;5068328;28;20020;-74
2024/01/25 06:17:23;;;;;;;35.03;18.38;;;;;;;6.76;57.29;100653.59;5068435;28;20096;-76
2024/01/25 06:19:49;;;;;;;42.65;19.77;;;;;;;6.86;57.94;100681.44;5068349;28;20056;-74
2024/01/25 06:22:16;;;;;;;42.38;22.08;;;;;;;6.80;57.77;100676.47;5068109;28;20108;-75
2024/01/25 06:24:42;;;;;;;52.20;23.65;;;;;;;6.75;58.22;100673.25;5068710;28;20459;-76
2024/01/25 06:27:09;;;;;;;52.83;26.80;;;;;;;6.71;58.19;100674.41;5068444;28;20086;-74
2024/01/25 06:29:35;;;;;;;51.30;27.20;;;;;;;6.67;58.68;100681.75;5068125;28;20040;-73
2024/01/25 06:32:01;;;;;;;50.78;28.73;;;;;;;6.64;58.56;100665.91;5069124;28;20034;-75
2024/01/25 06:34:26;;;;;;;45.63;27.48;;;;;;;6.56;58.89;100669.09;5068869;28;20024;-74
2024/01/25 06:36:52;;;;;;;56.00;27.02;;;;;;;6.62;58.99;100672.31;5070147;28;20033;-73
2024/01/25 06:39:17;;;;;;;46.90;26.70;;;;;;;6.66;59.38;100680.06;5073136;28;20027;-76
2024/01/25 06:41:43;;;;;;;43.97;23.42;;;;;;;6.60;59.51;100669.78;5069842;28;20029;-74
2024/01/25 06:44:09;;;;;;;45.97;23.10;;;;;;;6.56;60.19;100663.75;5067640;28;20028;-71
2024/01/25 06:46:35;;;;;;;38.28;21.55;;;;;;;6.43;60.09;100645.94;5068173;28;20039;-75
2024/01/25 06:49:01;;;;;;;45.92;21.63;;;;;;;6.47;60.42;100651.00;5068090;28;20140;-79
2024/01/25 06:51:26;;;;;;;43.47;21.38;;;;;;;6.62;60.96;100661.63;5066659;28;20028;-77
2024/01/25 06:53:52;;;;;;;42.60;21.25;;;;;;;6.58;61.26;100661.84;5067771;28;20059;-75
2024/01/25 06:56:17;;;;;;;43.08;22.30;;;;;;;6.63;61.48;100652.69;5066397;28;20460;-76
2024/01/25 06:58:43;;;;;;;32.55;19.02;;;;;;;6.64;61.66;100649.03;5066358;28;20028;-73
2024/01/25 07:01:09;;;;;;;43.78;20.48;;;;;;;6.74;62.07;100658.16;5067305;28;20086;-73
2024/01/25 07:03:35;;;;;;;32.63;19.42;;;;;;;6.73;61.77;100624.41;5067938;28;20102;-77
2024/01/25 07:06:00;;;;;;;45.80;20.08;;;;;;;6.81;61.94;100640.78;5067888;28;20487;-74
2024/01/25 07:08:25;;;;;;;39.65;19.52;;;;;;;6.92;61.95;100635.56;5067938;28;20063;-71
2024/01/25 07:10:51;;;;;;;34.85;18.50;;;;;;;7.06;61.92;100643.56;5067315;28;20028;-74
2024/01/25 07:13:17;;;;;;;34.45;18.20;;;;;;;7.08;62.50;100633.59;5067821;28;20040;-76
2024/01/25 07:15:42;;;;;;;31.63;17.00;;;;;;;7.25;62.24;100645.88;5067363;28;20028;-74
2024/01/25 07:18:08;;;;;;;30.30;16.27;;;;;;;7.36;62.11;100643.31;5066874;28;20063;-74
2024/01/25 07:20:34;;;;;;;35.30;16.13;;;;;;;7.51;62.01;100653.81;5068643;28;20407;-75
2024/01/25 07:22:59;;;;;;;38.40;16.42;;;;;;;7.57;61.95;100653.41;5067879;28;20464;-74
2024/01/25 07:25:25;;;;;;;27.40;15.32;;;;;;;7.68;62.20;100656.19;5071197;28;20111;-75
2024/01/25 07:27:50;;;;;;;36.22;16.15;;;;;;;7.79;61.94;100657.28;5077265;28;20039;-77
2024/01/25 07:30:16;;;;;;;30.67;16.33;;;;;;;7.83;61.55;100653.44;5068963;28;20056;-77
2024/01/25 07:32:42;;;;;;;27.90;15.80;;;;;;;7.95;61.47;100642.69;5072555;28;20032;-75
2024/01/25 07:35:11;;;;;;;32.35;14.00;;;;;;;8.10;61.12;100648.81;5069718;28;20049;-74
2024/01/25 07:37:37;;;;;;;35.22;15.63;;;;;;;8.20;60.80;100640.00;5067702;28;20036;-73
2024/01/25 07:40:03;;;;;;;35.85;17.63;;;;;;;8.27;60.58;100647.59;5067265;28;20039;-76
2024/01/25 07:42:29;;;;;;;23.33;14.32;;;;;;;8.34;60.49;100638.19;5067120;28;20037;-74
2024/01/25 07:44:55;;;;;;;26.20;13.02;;;;;;;8.44;60.56;100641.94;5067399;28;20038;-75
2024/01/25 07:47:20;;;;;;;28.95;14.70;;;;;;;8.44;60.47;100633.91;5067329;28;20078;-76
2024/01/25 07:49:46;;;;;;;43.85;18.85;;;;;;;8.58;59.94;100636.41;5067315;28;20017;-75
2024/01/25 07:52:11;;;;;;;43.40;18.77;;;;;;;8.65;60.04;100627.81;5067523;28;20094;-75
2024/01/25 07:54:37;;;;;;;35.35;17.88;;;;;;;8.80;59.59;100624.97;5065755;28;20833;-75
2024/01/25 07:57:02;;;;;;;29.25;15.13;;;;;;;8.73;59.78;100617.38;5066914;28;20024;-75
2024/01/25 07:59:28;;;;;;;34.20;16.83;;;;;;;8.87;59.35;100623.56;5067790;28;20115;-75
2024/01/25 08:01:53;;;;;;;26.70;15.90;;;;;;;8.75;59.60;100599.34;5067471;28;20028;-75
2024/01/25 08:04:19;;;;;;;28.83;17.35;;;;;;;8.94;59.70;100614.94;5067056;28;20547;-75
2024/01/25 08:06:44;;;;;;;37.70;15.98;;;;;;;9.03;59.76;100616.06;5067532;28;20104;-75
2024/01/25 08:09:10;;;;;;;23.17;14.40;;;;;;;9.17;59.11;100621.25;5068589;28;20029;-76
2024/01/25 08:11:36;;;;;;;26.90;16.08;;;;;;;9.24;58.83;100627.84;5066836;28;20389;-76
2024/01/25 08:14:03;;;;;;;28.17;15.65;;;;;;;9.28;58.89;100649.00;5069142;28;20048;-75
2024/01/25 08:16:29;;;;;;;40.42;15.80;;;;;;;9.32;58.80;100622.78;5073341;28;20447;-80
2024/01/25 08:18:54;;;;;;;42.75;16.20;;;;;;;9.43;59.04;100640.72;5068006;28;20063;-77
2024/01/25 08:21:20;;;;;;;32.90;17.23;;;;;;;9.58;58.72;100651.16;5066962;28;20028;-73
2024/01/25 08:23:45;;;;;;;36.05;14.32;;;;;;;9.67;58.33;100652.28;5066729;28;20499;-75
2024/01/25 08:26:12;;;;;;;41.10;14.95;;;;;;;9.71;57.44;100637.63;5066651;28;20020;-74
2024/01/25 08:28:43;;;;;;;29.85;12.50;;;;;;;9.73;57.65;100639.22;5066858;28;20506;-75
2024/01/25 08:31:09;;;;;;;21.73;13.45;;;;;;;9.97;57.02;100660.63;5065779;28;20037;-75
2024/01/25 08:33:34;;;;;;;34.40;15.35;;;;;;;10.00;56.93;100635.38;5067495;28;20428;-76
2024/01/25 08:36:00;;;;;;;27.38;14.70;;;;;;;10.13;57.17;100646.84;5070414;28;20055;-74
2024/01/25 08:38:25;;;;;;;31.90;15.40;;;;;;;10.21;57.09;100649.81;5069342;28;20033;-75
2024/01/25 08:40:51;;;;;;;31.95;14.77;;;;;;;10.22;57.20;100649.69;5070612;28;20032;-75
2024/01/25 08:43:17;;;;;;;30.77;14.88;;;;;;;10.16;57.38;100643.94;5070736;28;20114;-77
2024/01/25 08:45:43;;;;;;;26.95;13.70;;;;;;;10.28;57.68;100642.97;5070173;28;20495;-76
2024/01/25 08:48:09;;;;;;;28.73;16.40;;;;;;;10.17;57.38;100610.72;5070358;28;20024;-74
2024/01/25 08:50:35;;;;;;;35.45;16.77;;;;;;;10.36;56.82;100627.09;5070466;28;20024;-75
2024/01/25 08:53:01;;;;;;;36.25;15.43;;;;;;;10.66;56.24;100656.03;5070585;28;20116;-76
2024/01/25 08:55:27;;;;;;;24.73;12.75;;;;;;;10.79;56.16;100662.94;5070705;28;20107;-75
2024/01/25 08:57:52;;;;;;;21.20;12.80;;;;;;;10.77;55.01;100659.53;5071311;28;20111;-75
2024/01/25 09:00:18;;;;;;;40.38;14.45;;;;;;;10.87;55.11;100648.88;5070845;28;20098;-74
2024/01/25 09:02:43;;;;;;;28.88;14.40;;;;;;;10.95;54.77;100664.41;5073342;28;20017;-76
2024/01/25 09:05:09;;;;;;;33.22;13.77;;;;;;;10.92;55.04;100657.44;5076472;28;20024;-75
2024/01/25 09:07:35;;;;;;;32.63;14.65;;;;;;;11.01;54.37;100663.91;5072176;28;20024;-74
2024/01/25 09:10:00;;;;;;;26.35;13.18;;;;;;;10.91;53.81;100635.06;5069943;28;20492;-75
2024/01/25 09:12:26;;;;;;;37.05;14.27;;;;;;;10.97;54.27;100643.59;5070249;28;20016;-74
2024/01/25 09:14:51;;;;;;;40.13;14.60;;;;;;;10.97;54.75;100643.59;5070284;28;20033;-76
2024/01/25 09:17:21;;;;;;;26.13;12.07;;;;;;;10.99;54.04;100644.31;5069916;28;20048;-78
2024/01/25 09:19:49;;;;;;;22.88;11.98;;;;;;;10.97;54.50;100652.53;5070229;28;20056;-74
2024/01/25 09:22:16;;;;;;;29.15;12.50;;;;;;;10.98;54.73;100645.31;5069720;28;20085;-76
2024/01/25 09:24:42;;;;;;;25.80;12.55;;;;;;;11.04;54.46;100639.44;5069807;28;20025;-73
2024/01/25 09:27:08;;;;;;;45.03;13.40;;;;;;;11.02;54.20;100636.84;5068642;28;20078;-78
2024/01/25 09:29:33;;;;;;;28.38;12.02;;;;;;;11.25;54.20;100657.31;5069702;28;20032;-75
2024/01/25 09:31:59;;;;;;;22.08;11.07;;;;;;;11.34;53.48;100642.25;5069681;28;20502;-77
2024/01/25 09:34:25;;;;;;;22.13;10.63;;;;;;;11.43;53.50;100647.72;5069556;28;20024;-75
2024/01/25 09:36:51;;;;;;;48.78;12.18;;;;;;;11.46;53.09;100635.81;5069594;28;20464;-75
2024/01/25 09:39:17;;;;;;;34.17;12.93;;;;;;;11.44;53.06;100638.63;5069641;28;20050;-77
2024/01/25 09:41:43;;;;;;;26.23;12.32;;;;;;;11.49;52.96;100643.63;5069757;28;20030;-75
2024/01/25 09:44:09;;;;;;;19.42;12.20;;;;;;;11.46;53.60;100625.06;5069618;28;20036;-75
2024/01/25 09:46:35;;;;;;;33.28;14.25;;;;;;;11.44;53.13;100621.63;5070789;28;20074;-75
2024/01/25 09:49:02;;;;;;;41.22;12.75;;;;;;;11.52;53.25;100650.59;5069928;28;20565;-80
2024/01/25 09:51:36;;;;;;;33.70;11.52;;;;;;;11.62;53.81;100646.97;5070531;28;20483;-75
2024/01/25 09:54:04;;;;;;;21.48;10.73;;;;;;;11.57;53.30;100648.38;5073164;28;20047;-74
2024/01/25 09:56:32;;;;;;;25.50;11.02;;;;;;;11.47;53.84;100638.38;5070139;28;20510;-78
2024/01/25 09:58:58;;;;;;;31.20;10.55;;;;;;;11.39;53.92;100629.25;5069215;28;20093;-74
2024/01/25 10:01:24;;;;;;;41.13;12.05;;;;;;;11.63;53.92;100648.69;5067477;28;20031;-75
2024/01/25 10:03:50;;;;;;;33.20;12.27;;;;;;;11.65;53.44;100645.88;5069071;28;20032;-75
2024/01/25 10:06:17;;;;;;;24.42;10.38;;;;;;;11.65;53.40;100638.63;5068712;28;20025;-75
2024/01/25 10:08:43;;;;;;;19.02;9.98;;;;;;;11.52;54.25;100618.28;5069039;28;20064;-76
2024/01/25 10:11:09;;;;;;;24.13;11.07;;;;;;;11.72;53.97;100636.31;5068921;28;20027;-74
2024/01/25 10:13:54;;;;;;;28.33;11.35;;;;;;;11.87;53.62;100643.91;5068671;28;20480;-76
2024/01/25 10:16:20;;;;;;;23.92;10.93;;;;;;;11.84;53.59;100637.94;5068556;28;20036;-75
2024/01/25 10:18:49;;;;;;;16.70;9.93;;;;;;;11.96;53.82;100628.78;5068853;28;20060;-74
2024/01/25 10:21:16;;;;;;;26.70;11.48;;;;;;;12.16;53.47;100614.44;5068812;28;20107;-74
2024/01/25 10:23:45;;;;;;;26.00;11.88;;;;;;;12.22;52.79;100591.47;5066196;28;20043;-76
2024/01/25 10:26:10;;;;;;;24.92;11.55;;;;;;;12.49;52.39;100603.34;5068692;28;20466;-74
2024/01/25 10:28:36;;;;;;;28.27;9.85;;;;;;;12.67;51.91;100602.66;5068451;28;20089;-74
2024/01/25 10:31:04;;;;;;;17.85;10.45;;;;;;;12.53;51.97;100590.44;5068848;28;20025;-77
2024/01/25 10:33:30;;;;;;;33.08;11.50;;;;;;;12.63;51.96;100590.47;5068760;28;20032;-75
2024/01/25 10:36:03;;;;;;;24.13;11.00;;;;;;;12.93;51.68;100588.53;5067921;28;20135;-78
2024/01/25 10:38:34;;;;;;;48.60;13.30;;;;;;;13.00;51.27;100578.84;5068831;28;20703;-74
2024/01/25 10:41:01;;;;;;;59.33;12.73;;;;;;;13.19;51.37;100587.97;5071988;28;20044;-75
2024/01/25 10:43:32;;;;;;;23.27;9.85;;;;;;;13.14;51.21;100584.84;5074239;28;20048;-77
2024/01/25 10:45:58;;;;;;;25.30;11.68;;;;;;;12.98;51.38;100561.94;5070266;28;20078;-75
2024/01/25 10:48:28;;;;;;;22.80;10.48;;;;;;;12.97;51.09;100573.72;5067908;28;20064;-74
2024/01/25 10:50:55;;;;;;;27.83;11.05;;;;;;;12.97;51.23;100584.53;5067856;28;20050;-79
2024/01/25 10:53:22;;;;;;;17.98;9.32;;;;;;;12.94;51.19;100595.59;5068028;28;20036;-74
2024/01/25 10:55:47;;;;;;;22.83;10.38;;;;;;;12.79;51.34;100590.75;5068130;28;20103;-76
2024/01/25 10:58:16;;;;;;;24.00;10.00;;;;;;;12.71;51.72;100586.06;5067762;28;20115;-76
2024/01/25 11:00:49;;;;;;;30.60;11.52;;;;;;;12.66;51.78;100579.41;5066885;28;20454;-75
2024/01/25 11:03:15;;;;;;;23.08;10.15;;;;;;;12.59;51.75;100589.03;5068129;28;20031;-78
2024/01/25 11:05:40;;;;;;;29.38;11.35;;;;;;;12.42;52.19;100588.69;5062934;28;20028;-74
2024/01/25 11:08:18;;;;;;;31.90;10.75;;;;;;;12.36;52.51;100577.59;5066404;28;20067;-76